createdAt,value
2024-05-09T00:00:30.752Z,50.262451
2024-05-09T00:01:23.065Z,50.204468
2024-05-09T00:02:33.272Z,50.245884
2024-05-09T00:03:27.499Z,50.300598
2024-05-09T00:04:25.293Z,50.231679
2024-05-09T00:05:22.259Z,50.241307
2024-05-09T00:06:22.140Z,50.169678
2024-05-09T00:07:26.569Z,50.319672
2024-05-09T00:08:30.522Z,50.417437
2024-05-09T00:09:34.112Z,50.409317
2024-05-09T00:10:35.201Z,50.412292
2024-05-09T00:11:31.297Z,50.225576
2024-05-09T00:12:24.103Z,50.279999
2024-05-09T00:13:25.771Z,50.313416
2024-05-09T00:14:26.285Z,50.258527
2024-05-09T00:15:21.100Z,50.273387
2024-05-09T00:16:27.377Z,50.300980
2024-05-09T00:17:27.576Z,50.283813
2024-05-09T00:18:25.359Z,50.291189
2024-05-09T00:19:28.459Z,50.228373
2024-05-09T00:20:28.552Z,50.147400
2024-05-09T00:21:25.753Z,50.163879
2024-05-09T00:22:21.676Z,50.224686
2024-05-09T00:23:30.451Z,50.277138
2024-05-09T00:24:27.346Z,50.277274
2024-05-09T00:25:25.041Z,50.299581
2024-05-09T00:26:33.323Z,50.348511
2024-05-09T00:27:25.153Z,50.322723
2024-05-09T00:28:26.931Z,50.257874
2024-05-09T00:29:22.003Z,50.259654
2024-05-09T00:30:46.739Z,50.207955
2024-05-09T00:31:29.450Z,50.229263
2024-05-09T00:32:25.317Z,50.250244
2024-05-09T00:33:37.851Z,50.317637
2024-05-09T00:34:29.342Z,50.311890
2024-05-09T00:35:21.732Z,50.333252
2024-05-09T00:36:23.944Z,50.418091
2024-05-09T00:37:32.557Z,50.358836
2024-05-09T00:38:21.596Z,50.340707
2024-05-09T00:39:23.416Z,50.291951
2024-05-09T00:44:21.382Z,50.430298
2024-05-09T00:45:24.112Z,50.504875
2024-05-09T00:46:24.049Z,50.416870
2024-05-09T00:47:33.496Z,50.479380
2024-05-09T00:48:31.478Z,50.442200
2024-05-09T00:49:25.625Z,50.486501
2024-05-09T00:50:29.935Z,50.561269
2024-05-09T00:51:25.675Z,50.511169
2024-05-09T00:52:43.085Z,50.460561
2024-05-09T00:53:23.562Z,50.431569
2024-05-09T00:54:33.128Z,50.296892
2024-05-09T00:55:31.243Z,50.315857
2024-05-09T00:56:22.712Z,50.369771
2024-05-09T00:57:22.803Z,50.191171
2024-05-09T00:58:20.266Z,50.224304
2024-05-09T00:59:30.424Z,50.366592
2024-05-09T01:00:31.474Z,50.387065
2024-05-09T01:01:46.153Z,50.409154
2024-05-09T01:09:45.495Z,50.480652
2024-05-09T01:11:05.467Z,50.534821
2024-05-09T01:12:43.793Z,50.644430
2024-05-09T01:13:11.184Z,50.691732
2024-05-09T01:14:04.018Z,50.750732
2024-05-09T01:14:40.187Z,50.653076
2024-05-09T01:16:04.631Z,50.593058
2024-05-09T01:16:33.471Z,50.597636
2024-05-09T01:18:27.319Z,50.649007
2024-05-09T01:18:52.464Z,50.616964
2024-05-09T01:20:42.462Z,50.607300
2024-05-09T01:20:53.534Z,50.553894
2024-05-09T01:21:39.691Z,50.566101
2024-05-09T01:23:16.551Z,50.561778
2024-05-09T01:23:39.618Z,50.546265
2024-05-09T01:24:52.840Z,50.519943
2024-05-09T01:26:48.980Z,50.537491
2024-05-09T01:27:12.880Z,50.628662
2024-05-09T01:27:56.338Z,50.621033
2024-05-09T01:28:25.491Z,50.698090
2024-05-09T01:36:55.974Z,50.833511
2024-05-09T01:37:36.276Z,50.862122
2024-05-09T01:38:27.623Z,50.774193
2024-05-09T01:42:43.998Z,50.863647
2024-05-09T01:44:36.250Z,50.857239
2024-05-09T01:45:18.387Z,50.807190
2024-05-09T01:45:23.079Z,50.759888
2024-05-09T01:46:21.281Z,50.781555
2024-05-09T01:47:32.269Z,50.797653
2024-05-09T01:48:28.722Z,50.869751
2024-05-09T01:49:24.041Z,50.869446
2024-05-09T01:50:39.663Z,50.802612
2024-05-09T01:51:20.519Z,50.782267
2024-05-09T01:52:25.574Z,50.620651
2024-05-09T01:53:22.697Z,50.629934
2024-05-09T01:54:21.811Z,50.526937
2024-05-09T01:55:28.909Z,50.508690
2024-05-09T01:56:23.563Z,50.511424
2024-05-09T01:57:34.117Z,50.579834
2024-05-09T01:58:23.529Z,50.547791
2024-05-09T01:59:28.729Z,50.489299
2024-05-09T02:00:33.915Z,50.554984
2024-05-09T02:01:23.470Z,50.645447
2024-05-09T02:02:29.607Z,50.557382
2024-05-09T02:03:24.387Z,50.608063
2024-05-09T02:04:34.838Z,50.570170
2024-05-09T02:05:29.480Z,50.447083
2024-05-09T02:06:21.015Z,50.495656
2024-05-09T02:07:21.657Z,50.463867
2024-05-09T02:08:26.418Z,50.411034
2024-05-09T02:09:28.610Z,50.420888
2024-05-09T02:10:31.675Z,50.317128
2024-05-09T02:11:34.541Z,50.288827
2024-05-09T02:12:23.279Z,50.291951
2024-05-09T02:13:25.255Z,50.243225
2024-05-09T02:14:21.933Z,50.290527
2024-05-09T02:15:24.257Z,50.181389
2024-05-09T02:16:28.048Z,50.334778
2024-05-09T02:17:23.444Z,50.418701
2024-05-09T02:18:35.017Z,50.409154
2024-05-09T02:19:24.771Z,50.312151
2024-05-09T02:20:34.070Z,50.430734
2024-05-09T02:21:21.812Z,50.415649
2024-05-09T02:22:27.118Z,50.406138
2024-05-09T02:23:20.303Z,50.393677
2024-05-09T02:24:23.137Z,50.385175
2024-05-09T02:25:35.626Z,50.293477
2024-05-09T02:26:29.777Z,50.379944
2024-05-09T02:27:26.770Z,50.387065
2024-05-09T02:28:21.324Z,50.408500
2024-05-09T02:29:31.762Z,50.358836
2024-05-09T02:30:31.071Z,50.289917
2024-05-09T02:31:23.412Z,50.322978
2024-05-09T02:32:35.331Z,50.308736
2024-05-09T02:33:30.833Z,50.310516
2024-05-09T02:34:26.150Z,50.270844
2024-05-09T02:35:21.233Z,50.208609
2024-05-09T02:36:23.051Z,50.176493
2024-05-09T02:37:28.022Z,50.209045
2024-05-09T02:38:23.729Z,50.271225
2024-05-09T02:39:34.953Z,50.250498
2024-05-09T02:40:36.559Z,50.255585
2024-05-09T02:41:22.226Z,50.281143
2024-05-09T02:42:21.960Z,50.369263
2024-05-09T02:43:27.352Z,50.177256
2024-05-09T02:44:22.513Z,50.200653
2024-05-09T02:45:25.183Z,50.254567
2024-05-09T02:46:34.734Z,50.351562
2024-05-09T02:47:30.466Z,50.261943
2024-05-09T02:48:27.111Z,50.177574
2024-05-09T02:49:23.475Z,50.174205
2024-05-09T02:50:37.945Z,50.224958
2024-05-09T02:51:23.683Z,50.226974
2024-05-09T02:52:23.807Z,50.193133
2024-05-09T02:53:24.852Z,50.460307
2024-05-09T02:54:30.919Z,50.373622
2024-05-09T02:55:26.481Z,50.242996
2024-05-09T02:56:21.865Z,50.258484
2024-05-09T02:57:31.295Z,50.293986
2024-05-09T02:58:29.627Z,50.359853
2024-05-09T02:59:24.170Z,50.402832
2024-05-09T03:00:36.802Z,50.291697
2024-05-09T03:01:19.775Z,50.325966
2024-05-09T03:02:25.392Z,50.331624
2024-05-09T03:03:21.695Z,50.299683
2024-05-09T03:04:31.811Z,50.354222
2024-05-09T03:05:28.411Z,50.415802
2024-05-09T03:06:25.620Z,50.287083
2024-05-09T03:07:34.579Z,50.383606
2024-05-09T03:08:24.513Z,50.424703
2024-05-09T03:09:25.217Z,50.410716
2024-05-09T03:10:25.453Z,50.405666
2024-05-09T03:11:33.302Z,50.360413
2024-05-09T03:12:27.477Z,50.276947
2024-05-09T03:13:30.326Z,50.292460
2024-05-09T03:14:22.638Z,50.458018
2024-05-09T03:15:31.087Z,50.482941
2024-05-09T03:16:21.433Z,50.435486
2024-05-09T03:17:23.242Z,50.392151
2024-05-09T03:18:31.765Z,50.356801
2024-05-09T03:19:29.516Z,50.369008
2024-05-09T03:20:27.752Z,50.392151
2024-05-09T03:21:26.184Z,50.389535
2024-05-09T03:22:33.733Z,50.347028
2024-05-09T03:23:25.909Z,50.411987
2024-05-09T03:24:21.258Z,50.440674
2024-05-09T03:25:32.773Z,50.410243
2024-05-09T03:26:27.845Z,50.439962
2024-05-09T03:27:24.866Z,50.355530
2024-05-09T03:28:22.292Z,50.282288
2024-05-09T03:29:24.798Z,50.284831
2024-05-09T03:30:34.622Z,50.251770
2024-05-09T03:31:22.174Z,50.321350
2024-05-09T03:32:33.137Z,50.541941
2024-05-09T03:33:28.413Z,50.246887
2024-05-09T03:34:23.600Z,50.315639
2024-05-09T03:35:25.277Z,50.435965
2024-05-09T03:36:29.511Z,50.329590
2024-05-09T03:37:21.118Z,50.324097
2024-05-09T03:38:21.677Z,50.351969
2024-05-09T03:39:19.811Z,50.464249
2024-05-09T03:40:30.926Z,50.445557
2024-05-09T03:41:23.377Z,50.413895
2024-05-09T03:42:26.477Z,50.260925
2024-05-09T03:43:32.609Z,50.229972
2024-05-09T03:44:25.742Z,50.397491
2024-05-09T03:45:22.796Z,50.289917
2024-05-09T03:46:24.400Z,50.462777
2024-05-09T03:47:28.412Z,50.549062
2024-05-09T03:48:23.770Z,50.530497
2024-05-09T03:49:29.528Z,50.498199
2024-05-09T03:50:35.490Z,50.411333
2024-05-09T03:51:28.122Z,50.407192
2024-05-09T03:52:23.648Z,50.387268
2024-05-09T03:53:24.386Z,50.320435
2024-05-09T03:54:22.166Z,50.244577
2024-05-09T03:55:24.034Z,50.296529
2024-05-09T03:56:33.948Z,50.382342
2024-05-09T03:57:29.725Z,50.461197
2024-05-09T03:58:26.977Z,50.392805
2024-05-09T03:59:22.079Z,50.466919
2024-05-09T04:03:37.317Z,50.430603
2024-05-09T04:04:22.736Z,50.513611
2024-05-09T04:05:26.455Z,50.575256
2024-05-09T04:06:21.914Z,50.399344
2024-05-09T04:07:22.547Z,50.354658
2024-05-09T04:08:30.059Z,50.616709
2024-05-09T04:09:25.659Z,50.558777
2024-05-09T04:10:35.651Z,50.337601
2024-05-09T04:11:27.298Z,50.282506
2024-05-09T04:12:27.441Z,50.271225
2024-05-09T04:13:21.703Z,50.137329
2024-05-09T04:14:25.590Z,50.044250
2024-05-09T04:15:20.576Z,50.163051
2024-05-09T04:16:23.617Z,50.338491
2024-05-09T04:17:34.835Z,50.362723
2024-05-09T04:18:29.352Z,50.408020
2024-05-09T04:19:25.580Z,50.413077
2024-05-09T04:20:32.575Z,50.314140
2024-05-09T04:21:31.957Z,50.285034
2024-05-09T04:22:25.065Z,50.378418
2024-05-09T04:23:25.577Z,50.546519
2024-05-09T04:24:25.274Z,50.378799
2024-05-09T04:25:31.708Z,50.349121
2024-05-09T04:26:25.374Z,50.331497
2024-05-09T04:27:23.295Z,50.309944
2024-05-09T04:28:36.162Z,50.357056
2024-05-09T04:29:27.770Z,50.385793
2024-05-09T04:30:30.205Z,50.334167
2024-05-09T04:31:29.288Z,50.300598
2024-05-09T04:32:21.093Z,50.345067
2024-05-09T04:33:23.141Z,50.275167
2024-05-09T04:34:21.517Z,50.216980
2024-05-09T04:35:31.716Z,50.156403
2024-05-09T04:36:34.986Z,50.158255
2024-05-09T04:37:39.651Z,50.120239
2024-05-09T04:38:36.229Z,50.021057
2024-05-09T04:39:25.354Z,50.053024
2024-05-09T04:40:33.027Z,50.123024
2024-05-09T04:41:22.333Z,50.106812
2024-05-09T04:42:31.437Z,50.045558
2024-05-09T04:43:28.320Z,50.084686
2024-05-09T04:44:24.569Z,50.209300
2024-05-09T04:45:22.219Z,50.200653
2024-05-09T04:46:30.992Z,50.323486
2024-05-09T04:47:22.988Z,50.343933
2024-05-09T04:48:22.117Z,50.162252
2024-05-09T04:49:33.409Z,50.027684
2024-05-09T04:50:36.460Z,50.076294
2024-05-09T04:51:24.376Z,50.274404
2024-05-09T04:52:24.978Z,50.206430
2024-05-09T04:53:31.423Z,50.230844
2024-05-09T04:54:36.130Z,50.164185
2024-05-09T04:55:25.431Z,50.176392
2024-05-09T04:56:39.192Z,50.254059
2024-05-09T04:57:27.596Z,50.356838
2024-05-09T04:58:25.659Z,50.494766
2024-05-09T04:59:29.121Z,50.431442
2024-05-09T05:00:28.902Z,50.338091
2024-05-09T05:01:26.818Z,50.297110
2024-05-09T05:02:24.083Z,50.180308
2024-05-09T05:03:33.310Z,50.190430
2024-05-09T05:04:27.551Z,50.192261
2024-05-09T05:05:26.162Z,50.140889
2024-05-09T05:06:35.251Z,50.185721
2024-05-09T05:07:25.566Z,50.244446
2024-05-09T05:08:27.419Z,50.212860
2024-05-09T05:09:24.257Z,50.195821
2024-05-09T05:10:32.998Z,50.093515
2024-05-09T05:11:27.692Z,50.008392
2024-05-09T05:12:25.784Z,50.041199
2024-05-09T05:13:41.340Z,50.116475
2024-05-09T05:14:29.369Z,50.202942
2024-05-09T05:15:26.785Z,50.200195
2024-05-09T05:16:21.472Z,50.275803
2024-05-09T05:17:26.664Z,50.526646
2024-05-09T05:18:28.300Z,50.386556
2024-05-09T05:19:24.804Z,50.348918
2024-05-09T05:20:30.679Z,50.570243
2024-05-09T05:21:29.754Z,50.287882
2024-05-09T05:22:28.765Z,50.354440
2024-05-09T05:23:22.219Z,50.386963
2024-05-09T05:24:33.180Z,50.299581
2024-05-09T05:25:24.263Z,50.357056
2024-05-09T05:26:23.425Z,50.295149
2024-05-09T05:27:19.957Z,50.192261
2024-05-09T05:28:39.814Z,50.172679
2024-05-09T05:29:25.889Z,50.186412
2024-05-09T05:30:29.346Z,50.269318
2024-05-09T05:31:34.101Z,50.166757
2024-05-09T05:32:30.339Z,50.157928
2024-05-09T05:33:24.824Z,50.074768
2024-05-09T05:34:19.615Z,50.268555
2024-05-09T05:35:33.200Z,50.334167
2024-05-09T05:36:27.804Z,50.185852
2024-05-09T05:37:21.683Z,50.135295
2024-05-09T05:38:26.094Z,50.168501
2024-05-09T05:39:31.697Z,50.399526
2024-05-09T05:40:40.056Z,50.348663
2024-05-09T05:41:20.951Z,50.341492
2024-05-09T05:42:29.936Z,50.359917
2024-05-09T05:43:25.631Z,50.172206
2024-05-09T05:44:22.982Z,50.188446
2024-05-09T05:45:25.848Z,50.259399
2024-05-09T05:46:28.262Z,50.126394
2024-05-09T05:47:23.605Z,50.051226
2024-05-09T05:48:20.839Z,50.076512
2024-05-09T05:49:22.839Z,50.327148
2024-05-09T05:50:32.524Z,50.430806
2024-05-09T05:51:23.376Z,50.409953
2024-05-09T05:52:32.699Z,50.223796
2024-05-09T05:53:23.479Z,50.413895
2024-05-09T05:54:23.517Z,50.215454
2024-05-09T05:55:19.636Z,50.169881
2024-05-09T05:56:23.699Z,50.217946
2024-05-09T05:57:26.557Z,50.117747
2024-05-09T05:58:21.542Z,49.932643
2024-05-09T05:59:35.128Z,49.925232
2024-05-09T06:00:37.670Z,50.046158
2024-05-09T06:01:23.607Z,50.100962
2024-05-09T06:02:19.705Z,50.065613
2024-05-09T06:03:24.187Z,50.031662
2024-05-09T06:04:25.631Z,50.188599
2024-05-09T06:05:24.265Z,50.105794
2024-05-09T06:06:39.041Z,50.122579
2024-05-09T06:07:21.548Z,50.116577
2024-05-09T06:08:28.026Z,50.161997
2024-05-09T06:09:20.186Z,50.149231
2024-05-09T06:10:34.763Z,50.293841
2024-05-09T06:11:25.559Z,50.352696
2024-05-09T06:12:21.936Z,50.263723
2024-05-09T06:13:39.936Z,50.507900
2024-05-09T06:14:24.995Z,50.452423
2024-05-09T06:15:24.451Z,50.691005
2024-05-09T06:16:35.499Z,50.552586
2024-05-09T06:17:34.526Z,50.491587
2024-05-09T06:18:21.805Z,50.356293
2024-05-09T06:19:21.511Z,50.397339
2024-05-09T06:20:38.377Z,50.405884
2024-05-09T06:24:29.813Z,50.030518
2024-05-09T06:25:22.564Z,50.037638
2024-05-09T06:30:29.887Z,50.046158
2024-05-09T06:31:22.237Z,49.990409
2024-05-09T06:32:25.671Z,50.135803
2024-05-09T06:33:21.833Z,50.115662
2024-05-09T06:34:32.830Z,50.084141
2024-05-09T06:42:30.408Z,49.999084
2024-05-09T06:43:23.609Z,50.328573
2024-05-09T06:44:21.030Z,50.510915
2024-05-09T06:45:30.833Z,50.579398
2024-05-09T06:46:23.035Z,50.381851
2024-05-09T06:47:21.590Z,50.171509
2024-05-09T06:48:26.542Z,50.170680
2024-05-09T06:49:28.627Z,50.468699
2024-05-09T06:50:31.473Z,50.331726
2024-05-09T06:51:19.639Z,50.193024
2024-05-09T06:52:32.798Z,50.535838
2024-05-09T06:53:27.818Z,50.614675
2024-05-09T06:54:22.325Z,50.510559
2024-05-09T06:55:34.064Z,50.200500
2024-05-09T06:56:24.308Z,50.241961
2024-05-09T06:57:24.974Z,50.367126
2024-05-09T06:58:20.258Z,50.438690
2024-05-09T06:59:30.121Z,50.238207
2024-05-09T07:00:35.659Z,50.252024
2024-05-09T07:01:24.823Z,50.011292
2024-05-09T07:02:31.617Z,50.164286
2024-05-09T07:03:29.061Z,50.252279
2024-05-09T07:04:20.609Z,49.825832
2024-05-09T07:05:19.933Z,49.854787
2024-05-09T07:06:30.777Z,49.733988
2024-05-09T07:07:27.911Z,49.797058
2024-05-09T07:08:23.795Z,49.990845
2024-05-09T07:09:31.900Z,49.986485
2024-05-09T07:10:33.116Z,50.020345
2024-05-09T07:11:26.725Z,50.077602
2024-05-09T07:12:22.772Z,50.182800
2024-05-09T07:13:29.752Z,49.849955
2024-05-09T07:14:27.179Z,49.643199
2024-05-09T07:15:22.039Z,49.649048
2024-05-09T07:16:23.532Z,49.974569
2024-05-09T07:17:29.331Z,49.854279
2024-05-09T07:18:25.826Z,49.808502
2024-05-09T07:19:21.820Z,49.961599
2024-05-09T07:20:34.555Z,49.941581
2024-05-09T07:21:27.780Z,49.874573
2024-05-09T07:22:22.656Z,49.779402
2024-05-09T07:23:22.585Z,49.987284
2024-05-09T07:24:20.695Z,49.712524
2024-05-09T07:25:23.678Z,49.446615
2024-05-09T07:26:19.744Z,49.644979
2024-05-09T07:27:30.229Z,49.751282
2024-05-09T07:28:27.660Z,49.602400
2024-05-09T07:29:22.063Z,49.566396
2024-05-09T07:30:34.475Z,49.602356
2024-05-09T07:31:26.843Z,49.638672
2024-05-09T07:32:24.368Z,49.729919
2024-05-09T07:33:23.271Z,49.675496
2024-05-09T07:34:24.319Z,49.718221
2024-05-09T07:35:26.093Z,49.593201
2024-05-09T07:36:27.450Z,49.604543
2024-05-09T07:37:31.835Z,49.695587
2024-05-09T07:38:33.642Z,49.587504
2024-05-09T07:39:25.362Z,49.435425
2024-05-09T07:40:31.806Z,49.485016
2024-05-09T07:41:23.562Z,49.615479
2024-05-09T07:42:22.415Z,49.804433
2024-05-09T07:43:23.724Z,49.595642
2024-05-09T07:44:34.453Z,49.620310
2024-05-09T07:45:45.192Z,49.530029
2024-05-09T07:47:34.795Z,49.358877
2024-05-09T07:48:57.484Z,49.358877
2024-05-09T07:50:34.468Z,49.358877
2024-05-09T07:52:01.184Z,49.461975
2024-05-09T07:53:20.413Z,49.585179
2024-05-09T07:53:36.167Z,49.546204
2024-05-09T07:53:46.341Z,49.467723
2024-05-09T07:53:52.563Z,49.444326
2024-05-09T07:53:58.285Z,49.388377
2024-05-09T07:54:23.014Z,49.602356
2024-05-09T07:55:29.846Z,49.655660
2024-05-09T07:56:31.612Z,49.548035
2024-05-09T07:57:22.628Z,49.536641
2024-05-09T07:58:32.586Z,49.867757
2024-05-09T07:59:25.206Z,50.102234
2024-05-09T08:00:30.901Z,50.117275
2024-05-09T08:01:21.173Z,50.100403
2024-05-09T08:02:30.851Z,50.178746
2024-05-09T08:03:25.648Z,50.054932
2024-05-09T08:04:23.046Z,49.871826
2024-05-09T08:05:33.060Z,50.054423
2024-05-09T08:06:27.578Z,50.540161
2024-05-09T08:07:25.464Z,50.579834
2024-05-09T08:08:19.862Z,50.337830
2024-05-09T08:09:24.167Z,50.263977
2024-05-09T08:10:27.463Z,50.252991
2024-05-09T08:11:22.478Z,50.403595
2024-05-09T08:12:23.066Z,50.527518
2024-05-09T08:13:30.539Z,50.537109
2024-05-09T08:14:26.069Z,50.406494
2024-05-09T08:15:20.548Z,50.386047
2024-05-09T08:16:30.286Z,50.336202
2024-05-09T08:17:29.680Z,50.526683
2024-05-09T08:18:22.750Z,50.665283
2024-05-09T08:19:29.950Z,50.777762
2024-05-09T08:20:30.150Z,50.667114
2024-05-09T08:21:24.031Z,50.517491
2024-05-09T08:22:21.910Z,50.611877
2024-05-09T08:23:32.897Z,50.489299
2024-05-09T08:24:26.567Z,50.533040
2024-05-09T08:25:22.376Z,50.343323
2024-05-09T08:26:33.903Z,50.461769
2024-05-09T08:27:25.097Z,50.528208
2024-05-09T08:28:24.357Z,50.583191
2024-05-09T08:29:19.653Z,50.537415
2024-05-09T08:30:36.368Z,50.531224
2024-05-09T08:31:28.729Z,50.574951
2024-05-09T08:32:23.045Z,50.381165
2024-05-09T08:33:32.270Z,50.321742
2024-05-09T08:34:29.685Z,50.273132
2024-05-09T08:35:25.642Z,50.215803
2024-05-09T08:36:20.153Z,50.258255
2024-05-09T08:37:35.013Z,50.271861
2024-05-09T08:38:28.259Z,50.276402
2024-05-09T08:39:22.095Z,50.349808
2024-05-09T08:40:36.115Z,50.565338
2024-05-09T08:41:27.799Z,50.499217
2024-05-09T08:42:29.610Z,50.388336
2024-05-09T08:43:20.604Z,50.318146
2024-05-09T08:44:30.066Z,50.302378
2024-05-09T08:45:32.551Z,50.157384
2024-05-09T08:46:23.740Z,50.115712
2024-05-09T08:47:22.992Z,50.161997
2024-05-09T08:48:28.328Z,50.080566
2024-05-09T08:49:25.451Z,50.047048
2024-05-09T08:50:35.630Z,50.262197
2024-05-09T08:51:30.455Z,50.250898
2024-05-09T08:52:29.278Z,50.171661
2024-05-09T08:53:25.759Z,50.293884
2024-05-09T08:57:26.126Z,50.138855
2024-05-09T08:58:23.145Z,50.310516
2024-05-09T08:59:28.617Z,50.346120
2024-05-09T09:03:28.740Z,50.214132
2024-05-09T09:04:20.752Z,50.012207
2024-05-09T09:05:25.856Z,50.009373
2024-05-09T09:06:26.294Z,50.220947
2024-05-09T09:07:22.198Z,50.095476
2024-05-09T09:08:34.901Z,49.954442
2024-05-09T09:09:31.264Z,50.027974
2024-05-09T09:10:29.279Z,50.009155
2024-05-09T09:11:20.339Z,50.042216
2024-05-09T09:12:32.896Z,50.141035
2024-05-09T09:13:21.793Z,49.884949
2024-05-09T09:14:22.010Z,49.981384
2024-05-09T09:15:23.580Z,49.928029
2024-05-09T09:16:28.236Z,50.055368
2024-05-09T09:17:25.605Z,50.021617
2024-05-09T09:18:21.806Z,49.987539
2024-05-09T09:19:29.748Z,49.987139
2024-05-09T09:20:39.958Z,49.979510
2024-05-09T09:21:23.479Z,49.971390
2024-05-09T09:22:34.286Z,49.959310
2024-05-09T09:23:27.394Z,49.959237
2024-05-09T09:24:24.488Z,49.893494
2024-05-09T09:25:24.088Z,49.809519
2024-05-09T09:26:29.898Z,49.886322
2024-05-09T09:27:25.461Z,49.969482
2024-05-09T09:28:23.204Z,49.858093
2024-05-09T09:29:28.070Z,49.917385
2024-05-09T09:30:35.385Z,49.824778
2024-05-09T09:31:26.594Z,49.756368
2024-05-09T09:32:20.440Z,49.867685
2024-05-09T09:33:22.948Z,49.840800
2024-05-09T09:34:28.237Z,49.808044
2024-05-09T09:35:23.702Z,49.975332
2024-05-09T09:36:22.532Z,49.928665
2024-05-09T09:37:28.328Z,49.976095
2024-05-09T09:38:23.647Z,49.810791
2024-05-09T09:39:21.219Z,49.824219
2024-05-09T09:40:32.126Z,49.653190
2024-05-09T09:41:26.393Z,49.722595
2024-05-09T09:42:23.465Z,49.607239
2024-05-09T09:43:25.140Z,49.742889
2024-05-09T09:44:20.697Z,49.598440
2024-05-09T09:45:25.564Z,49.735006
2024-05-09T09:46:19.750Z,49.691162
2024-05-09T09:47:30.620Z,49.538269
2024-05-09T09:48:26.819Z,49.610596
2024-05-09T09:49:21.994Z,49.541219
2024-05-09T09:50:34.309Z,49.628194
2024-05-09T09:51:23.702Z,49.627431
2024-05-09T09:52:26.303Z,49.829610
2024-05-09T09:53:21.642Z,49.765887
2024-05-09T09:57:33.992Z,49.722290
2024-05-09T09:58:27.808Z,49.687703
2024-05-09T09:59:24.027Z,49.742889
2024-05-09T10:00:27.198Z,49.832371
2024-05-09T10:01:29.586Z,49.946594
2024-05-09T10:02:23.723Z,50.062180
2024-05-09T10:03:22.579Z,49.946899
2024-05-09T10:04:33.711Z,49.955096
2024-05-09T10:05:31.780Z,49.873788
2024-05-09T10:06:24.183Z,49.870046
2024-05-09T10:07:19.729Z,49.861145
2024-05-09T10:08:30.165Z,49.918039
2024-05-09T10:09:26.665Z,49.961199
2024-05-09T10:10:31.562Z,49.963379
2024-05-09T10:11:41.659Z,50.158691
2024-05-09T10:12:28.302Z,50.084839
2024-05-09T10:13:24.048Z,50.032043
2024-05-09T10:14:20.157Z,49.905396
2024-05-09T10:15:32.169Z,49.856059
2024-05-09T10:16:26.105Z,49.961472
2024-05-09T10:17:23.143Z,49.940273
2024-05-09T10:18:21.638Z,49.981944
2024-05-09T10:19:28.128Z,49.817200
2024-05-09T10:20:28.177Z,49.891052
2024-05-09T10:21:19.605Z,49.870809
2024-05-09T10:22:31.422Z,49.905396
2024-05-09T10:23:26.211Z,50.090027
2024-05-09T10:24:22.115Z,50.044250
2024-05-09T10:25:25.527Z,49.994087
2024-05-09T10:26:27.833Z,50.074768
2024-05-09T10:27:26.659Z,50.073242
2024-05-09T10:28:20.515Z,49.979553
2024-05-09T10:30:57.519Z,50.013987
2024-05-09T10:32:45.195Z,50.040181
2024-05-09T10:33:07.156Z,50.419617
2024-05-09T10:33:28.123Z,50.505066
2024-05-09T10:34:25.045Z,50.573730
2024-05-09T10:35:20.744Z,50.923920
2024-05-09T10:36:28.685Z,51.040904
2024-05-09T10:37:25.895Z,51.135036
2024-05-09T10:38:24.161Z,51.190839
2024-05-09T10:39:34.244Z,51.121739
2024-05-09T10:40:31.443Z,50.971222
2024-05-09T10:41:24.699Z,50.780945
2024-05-09T10:42:20.110Z,50.872367
2024-05-09T10:43:45.756Z,50.721359
2024-05-09T10:44:23.629Z,50.718307
2024-05-09T10:45:21.813Z,50.637512
2024-05-09T10:46:32.122Z,50.603294
2024-05-09T10:47:33.973Z,50.604248
2024-05-09T10:48:23.793Z,50.521088
2024-05-09T10:49:21.603Z,50.483958
2024-05-09T10:50:34.155Z,50.379508
2024-05-09T10:51:29.387Z,50.423976
2024-05-09T10:52:21.831Z,50.371297
2024-05-09T10:53:33.233Z,50.415955
2024-05-09T10:54:27.964Z,50.364685
2024-05-09T10:55:24.305Z,50.284249
2024-05-09T10:56:20.415Z,50.267029
2024-05-09T10:57:31.552Z,50.251160
2024-05-09T10:58:26.485Z,50.401001
2024-05-09T10:59:24.410Z,50.336075
2024-05-09T11:00:36.351Z,50.471242
2024-05-09T11:01:28.527Z,50.476837
2024-05-09T11:02:25.420Z,50.562177
2024-05-09T11:03:20.500Z,50.610860
2024-05-09T11:04:30.963Z,50.503794
2024-05-09T11:05:26.311Z,50.321579
2024-05-09T11:06:21.506Z,50.266811
2024-05-09T11:07:24.043Z,50.169809
2024-05-09T11:11:24.263Z,50.320053
2024-05-09T11:12:27.645Z,50.170390
2024-05-09T11:13:22.280Z,50.168610
2024-05-09T11:14:33.390Z,50.259181
2024-05-09T11:15:27.860Z,50.253906
2024-05-09T11:16:26.287Z,50.376456
2024-05-09T11:17:22.288Z,50.424194
2024-05-09T11:18:25.284Z,50.484009
2024-05-09T11:19:25.774Z,50.471497
2024-05-09T11:20:29.103Z,50.525920
2024-05-09T11:21:33.942Z,50.340017
2024-05-09T11:22:23.057Z,50.288773
2024-05-09T11:23:25.107Z,50.265285
2024-05-09T11:24:21.259Z,50.398763
2024-05-09T11:25:30.108Z,50.339050
2024-05-09T11:26:22.515Z,50.148621
2024-05-09T11:27:21.951Z,50.167592
2024-05-09T11:28:34.199Z,50.269863
2024-05-09T11:29:28.574Z,50.314026
2024-05-09T11:30:27.039Z,50.174866
2024-05-09T11:31:21.867Z,50.094604
2024-05-09T11:32:33.337Z,50.000000
2024-05-09T11:33:27.266Z,49.956258
2024-05-09T11:34:22.145Z,50.023270
2024-05-09T11:35:32.375Z,50.007629
2024-05-09T11:36:24.130Z,50.132098
2024-05-09T11:37:24.784Z,50.139465
2024-05-09T11:38:21.624Z,50.115967
2024-05-09T11:39:30.556Z,50.168101
2024-05-09T11:40:32.328Z,50.181798
2024-05-09T11:41:23.623Z,50.013224
2024-05-09T11:42:31.883Z,50.051270
2024-05-09T11:43:29.496Z,50.048523
2024-05-09T11:44:24.582Z,49.835641
2024-05-09T11:45:21.818Z,49.792735
2024-05-09T11:46:32.761Z,49.743652
2024-05-09T11:47:27.174Z,49.925613
2024-05-09T11:48:23.014Z,50.044250
2024-05-09T11:49:25.340Z,49.999346
2024-05-09T11:50:32.826Z,49.891281
2024-05-09T11:51:26.578Z,49.853897
2024-05-09T11:55:26.827Z,51.466370
2024-05-09T11:56:24.267Z,52.340480
2024-05-09T11:57:30.854Z,52.510834
2024-05-09T11:58:24.033Z,52.175649
2024-05-09T11:59:21.074Z,52.632446
2024-05-09T12:00:33.724Z,52.906036
2024-05-09T12:01:27.820Z,52.815465
2024-05-09T12:02:25.466Z,52.983398
2024-05-09T12:03:32.754Z,52.937927
2024-05-09T12:04:21.657Z,53.455861
2024-05-09T12:05:26.660Z,53.275553
2024-05-09T12:06:20.159Z,53.204041
2024-05-09T12:07:28.664Z,53.073120
2024-05-09T12:08:20.056Z,53.082784
2024-05-09T12:09:21.710Z,53.071340
2024-05-09T12:10:35.817Z,52.954292
2024-05-09T12:11:28.736Z,53.145142
2024-05-09T12:12:24.916Z,52.958374
2024-05-09T12:13:20.113Z,52.896372
2024-05-09T12:14:31.170Z,52.749416
2024-05-09T12:15:26.097Z,52.806854
2024-05-09T12:16:23.764Z,52.709045
2024-05-09T12:17:33.146Z,52.473232